Time;durP1;ratioP1;P1;durP2;ratioP2;P2;SDS_P1;SDS_P2;PMS_P1;PMS_P2;Temp;Humidity;BMP_temperature;BMP_pressure;BME280_temperature;BME280_humidity;BME280_pressure;Samples;Min_cycle;Max_cycle;Signal;HPM_P1;HPM_P2
2024/01/05 00:01:33;;;;;;;26.87;11.67;;;8.20;56.90;;;;;;5076242;28;20490;-85
2024/01/05 00:04:00;;;;;;;15.80;4.73;;;8.20;55.40;;;;;;5076036;28;20512;-85
2024/01/05 00:06:31;;;;;;;21.97;8.00;;;8.20;54.00;;;;;;5059416;28;20219;-86
2024/01/05 00:08:57;;;;;;;17.50;4.20;;;8.20;57.60;;;;;;5072122;28;20450;-84
2024/01/05 00:11:23;;;;;;;22.97;6.87;;;8.20;53.40;;;;;;5074101;28;20505;-85
2024/01/05 00:13:48;;;;;;;13.70;4.30;;;8.10;52.30;;;;;;5074945;28;20196;-84
2024/01/05 00:16:22;;;;;;;20.83;4.67;;;8.10;53.40;;;;;;5057096;28;20519;-85
2024/01/05 00:18:47;;;;;;;17.93;5.03;;;8.10;56.30;;;;;;5072734;28;20189;-85
2024/01/05 00:21:26;;;;;;;12.87;4.97;;;8.00;52.60;;;;;;5082360;28;20496;-85
2024/01/05 00:23:53;;;;;;;17.77;5.90;;;8.00;55.60;;;;;;5072931;28;20285;-84
2024/01/05 00:26:19;;;;;;;14.97;4.77;;;8.00;54.00;;;;;;5053705;28;20444;-84
2024/01/05 00:28:45;;;;;;;18.77;4.17;;;8.00;58.30;;;;;;5052943;28;20438;-85
2024/01/05 00:31:12;;;;;;;24.60;4.43;;;7.90;56.40;;;;;;5062957;28;20980;-83
2024/01/05 00:33:39;;;;;;;10.30;3.53;;;7.90;57.30;;;;;;5075902;28;20819;-84
2024/01/05 00:36:05;;;;;;;11.50;4.30;;;7.90;56.40;;;;;;5075228;28;20474;-84
2024/01/05 00:38:31;;;;;;;18.23;4.33;;;7.80;59.10;;;;;;5058312;28;20438;-85
2024/01/05 00:40:56;;;;;;;17.23;4.23;;;7.80;59.10;;;;;;5061711;28;20538;-84
2024/01/05 00:43:22;;;;;;;25.83;5.27;;;7.80;60.30;;;;;;5053357;28;20196;-86
2024/01/05 00:45:47;;;;;;;14.00;3.60;;;7.80;60.00;;;;;;5058589;28;20189;-85
2024/01/05 00:48:13;;;;;;;22.20;4.17;;;7.80;60.40;;;;;;5071113;28;20647;-84
2024/01/05 00:50:38;;;;;;;20.97;3.60;;;7.80;58.30;;;;;;5076207;28;20326;-84
2024/01/05 00:53:04;;;;;;;14.30;2.90;;;7.80;55.60;;;;;;5078129;28;20222;-84
2024/01/05 00:55:29;;;;;;;11.33;3.57;;;7.80;55.30;;;;;;5077296;28;20189;-84
2024/01/05 00:57:55;;;;;;;22.93;3.50;;;7.80;54.00;;;;;;5061497;28;20188;-84
2024/01/05 01:00:20;;;;;;;15.20;3.40;;;7.80;53.20;;;;;;5075230;28;20216;-83
2024/01/05 01:02:46;;;;;;;16.00;3.67;;;7.80;53.10;;;;;;5075503;28;20194;-85
2024/01/05 01:05:11;;;;;;;18.40;4.70;;;7.70;53.70;;;;;;5058055;28;20205;-84
2024/01/05 01:07:39;;;;;;;12.73;3.40;;;7.70;56.30;;;;;;5081149;28;20182;-83
2024/01/05 01:10:05;;;;;;;14.53;3.53;;;7.80;59.50;;;;;;5074731;28;20224;-84
2024/01/05 01:12:30;;;;;;;16.57;4.80;;;7.70;54.50;;;;;;5070480;28;20440;-84
2024/01/05 01:14:56;;;;;;;11.27;3.80;;;7.70;55.40;;;;;;5074058;28;20435;-84
2024/01/05 01:17:22;;;;;;;10.07;3.57;;;7.70;55.40;;;;;;5075717;28;20265;-84
2024/01/05 01:19:48;;;;;;;17.03;3.20;;;7.70;55.20;;;;;;5070376;28;20184;-84
2024/01/05 01:22:14;;;;;;;11.90;3.33;;;7.60;54.20;;;;;;5075309;28;20424;-84
2024/01/05 01:24:39;;;;;;;10.67;3.20;;;7.60;55.60;;;;;;5082141;28;20949;-83
2024/01/05 01:27:05;;;;;;;11.37;3.63;;;7.60;57.40;;;;;;5082118;28;20193;-82
2024/01/05 01:29:30;;;;;;;15.20;3.70;;;7.70;61.20;;;;;;5057469;28;20181;-84
2024/01/05 01:31:56;;;;;;;12.63;3.10;;;7.70;63.40;;;;;;5071706;28;20217;-85
2024/01/05 01:34:22;;;;;;;12.47;2.80;;;7.80;64.70;;;;;;5057234;28;20185;-84
2024/01/05 01:36:47;;;;;;;9.07;4.17;;;7.70;54.20;;;;;;5073739;28;20300;-84
2024/01/05 01:39:13;;;;;;;8.37;2.67;;;7.70;53.80;;;;;;5072478;28;20499;-84
2024/01/05 01:41:40;;;;;;;8.40;2.63;;;7.70;50.20;;;;;;5062091;28;20731;-83
2024/01/05 01:44:06;;;;;;;12.40;2.83;;;7.70;47.80;;;;;;5055596;28;20268;-83
2024/01/05 01:46:33;;;;;;;24.50;2.73;;;7.60;40.70;;;;;;5076107;28;20471;-85
2024/01/05 01:48:59;;;;;;;7.60;2.23;;;7.60;42.60;;;;;;5076286;28;20639;-85
2024/01/05 01:51:24;;;;;;;11.30;2.20;;;7.60;45.90;;;;;;5077256;28;20484;-85
2024/01/05 01:53:51;;;;;;;6.77;2.73;;;7.70;51.10;;;;;;5064297;28;20178;-86
2024/01/05 01:56:18;;;;;;;8.77;2.37;;;7.80;53.50;;;;;;5079851;28;20268;-86
2024/01/05 01:58:44;;;;;;;11.53;2.33;;;7.80;53.30;;;;;;5079370;28;20521;-85
2024/01/05 02:01:10;;;;;;;12.27;1.93;;;7.90;52.80;;;;;;5078059;28;20474;-87
2024/01/05 02:03:36;;;;;;;8.83;2.13;;;8.00;50.70;;;;;;5075920;28;20444;-85
2024/01/05 02:06:01;;;;;;;12.87;2.77;;;8.00;48.50;;;;;;5072492;28;20443;-85
2024/01/05 02:08:28;;;;;;;9.17;2.00;;;8.10;45.10;;;;;;5074737;28;20443;-85
2024/01/05 02:10:54;;;;;;;8.37;2.10;;;8.10;39.10;;;;;;5069495;28;20631;-84
2024/01/05 02:13:20;;;;;;;9.10;2.87;;;8.10;34.70;;;;;;5071182;28;20446;-84
2024/01/05 02:15:45;;;;;;;8.67;2.73;;;8.20;29.40;;;;;;5071178;28;20463;-84
2024/01/05 02:18:12;;;;;;;8.00;2.27;;;8.20;26.30;;;;;;5079463;28;20446;-84
2024/01/05 02:20:37;;;;;;;14.80;2.67;;;8.20;21.60;;;;;;5077627;28;20636;-84
2024/01/05 02:23:06;;;;;;;7.90;3.10;;;8.20;16.40;;;;;;5075294;28;20534;-85
2024/01/05 02:25:32;;;;;;;13.93;2.67;;;8.20;13.40;;;;;;5076844;28;20272;-84
2024/01/05 02:27:57;;;;;;;9.63;1.80;;;8.20;8.00;;;;;;5079140;28;20466;-85
2024/01/05 02:30:23;;;;;;;12.90;2.37;;;8.30;3.90;;;;;;5079576;28;20205;-84
2024/01/05 02:32:48;;;;;;;7.73;2.03;;;8.30;1.00;;;;;;5075035;28;20682;-83
2024/01/05 02:35:14;;;;;;;6.00;2.03;;;8.30;1.00;;;;;;5059179;28;20200;-85
2024/01/05 02:37:43;;;;;;;10.93;2.50;;;8.30;1.00;;;;;;5057303;28;20298;-85
2024/01/05 02:40:12;;;;;;;10.20;2.73;;;8.30;1.00;;;;;;5071754;28;20722;-86
2024/01/05 02:42:38;;;;;;;4.93;1.93;;;8.40;1.00;;;;;;5080594;28;20450;-85
2024/01/05 02:45:04;;;;;;;8.30;2.27;;;8.30;1.00;;;;;;5079237;28;20461;-86
2024/01/05 02:47:30;;;;;;;8.70;2.23;;;8.30;1.00;;;;;;5069016;28;20424;-86
2024/01/05 02:49:56;;;;;;;8.73;2.17;;;8.30;1.00;;;;;;5084337;28;20519;-86
2024/01/05 02:52:21;;;;;;;12.17;3.60;;;8.20;1.00;;;;;;5084277;28;20178;-86
2024/01/05 02:54:47;;;;;;;8.53;2.30;;;8.20;1.00;;;;;;5085852;28;20189;-86
2024/01/05 02:57:12;;;;;;;13.77;2.47;;;8.10;1.00;;;;;;5088172;28;20185;-86
2024/01/05 02:59:38;;;;;;;5.50;2.10;;;8.00;1.00;;;;;;5083934;28;20184;-85
2024/01/05 03:02:03;;;;;;;9.17;2.67;;;7.90;1.00;;;;;;5084492;28;20220;-86
2024/01/05 03:04:29;;;;;;;13.60;3.17;;;7.80;1.00;;;;;;5083336;28;20185;-86
2024/01/05 03:06:54;;;;;;;13.83;3.00;;;7.70;1.00;;;;;;5083281;28;20189;-86
2024/01/05 03:09:20;;;;;;;9.77;2.53;;;7.70;1.00;;;;;;5084778;28;20220;-85
2024/01/05 03:11:45;;;;;;;9.03;2.30;;;7.60;1.00;;;;;;5085060;28;20224;-84
2024/01/05 03:14:11;;;;;;;15.80;3.03;;;7.60;1.00;;;;;;5078274;28;20197;-85
2024/01/05 03:16:36;;;;;;;5.93;2.53;;;7.50;1.00;;;;;;5076599;28;20197;-85
2024/01/05 03:19:02;;;;;;;7.30;2.47;;;7.40;1.00;;;;;;5057402;28;20178;-85
2024/01/05 03:21:27;;;;;;;5.97;1.87;;;7.40;1.00;;;;;;5079556;28;20197;-85
2024/01/05 03:23:53;;;;;;;6.47;2.57;;;7.40;3.70;;;;;;5081855;28;20203;-83
2024/01/05 03:26:18;;;;;;;10.73;2.43;;;7.40;5.00;;;;;;5077279;28;20185;-84
2024/01/05 03:28:44;;;;;;;8.17;2.23;;;7.40;2.70;;;;;;5084252;28;20224;-83
2024/01/05 03:31:13;;;;;;;5.03;2.20;;;7.40;1.00;;;;;;5058443;28;20761;-85
2024/01/05 03:33:42;;;;;;;10.90;2.60;;;7.40;3.10;;;;;;5077457;28;20185;-84
2024/01/05 03:36:08;;;;;;;10.10;2.97;;;7.50;5.70;;;;;;5081970;28;20442;-84
2024/01/05 03:38:33;;;;;;;7.97;2.92;;;7.50;7.10;;;;;;5083758;28;20173;-84
2024/01/05 03:40:59;;;;;;;6.80;2.57;;;7.50;8.10;;;;;;5059686;28;20701;-85
2024/01/05 03:43:24;;;;;;;12.50;2.30;;;7.60;8.50;;;;;;5076077;28;20185;-85
2024/01/05 03:45:50;;;;;;;10.37;2.10;;;7.60;1.00;;;;;;5073602;28;20216;-84
2024/01/05 03:48:16;;;;;;;9.53;2.23;;;7.60;1.00;;;;;;5076450;28;20658;-85
2024/01/05 03:50:42;;;;;;;11.47;2.07;;;7.80;1.00;;;;;;5072654;28;20209;-85
2024/01/05 03:53:07;;;;;;;10.63;2.57;;;7.80;1.00;;;;;;5077068;28;20432;-85
2024/01/05 03:55:33;;;;;;;7.20;1.63;;;7.90;1.00;;;;;;5057734;28;20177;-85
2024/01/05 03:57:58;;;;;;;4.80;1.80;;;8.00;1.00;;;;;;5063541;28;20216;-84
2024/01/05 04:00:24;;;;;;;10.53;2.60;;;8.00;1.00;;;;;;5075061;28;20215;-84
2024/01/05 04:02:49;;;;;;;5.90;2.17;;;8.10;1.00;;;;;;5074761;28;20193;-85
2024/01/05 04:05:15;;;;;;;15.93;2.60;;;8.20;1.00;;;;;;5053097;28;20185;-84
2024/01/05 04:07:40;;;;;;;10.30;2.80;;;8.20;1.00;;;;;;5076144;28;20714;-85
2024/01/05 04:10:06;;;;;;;7.00;1.97;;;8.20;1.00;;;;;;5055872;28;20224;-85
2024/01/05 04:12:32;;;;;;;7.27;2.20;;;8.30;1.00;;;;;;5075087;28;20181;-85
2024/01/05 04:14:57;;;;;;;5.30;2.43;;;8.30;1.00;;;;;;5075592;28;20193;-84
2024/01/05 04:17:23;;;;;;;9.03;2.40;;;8.40;1.00;;;;;;5076696;28;20606;-86
2024/01/05 04:19:48;;;;;;;9.60;3.30;;;8.40;1.00;;;;;;5074923;28;20183;-83
2024/01/05 04:22:14;;;;;;;13.90;3.87;;;8.50;1.00;;;;;;5058745;28;20176;-85
2024/01/05 04:24:40;;;;;;;10.33;2.60;;;8.50;1.00;;;;;;5073249;28;20265;-85
2024/01/05 04:27:06;;;;;;;7.50;2.10;;;8.60;1.00;;;;;;5076361;28;20182;-85
2024/01/05 04:29:31;;;;;;;6.60;2.70;;;8.60;1.00;;;;;;5057384;28;20431;-85
2024/01/05 04:31:57;;;;;;;6.70;2.73;;;8.60;1.00;;;;;;5076193;28;20247;-85
2024/01/05 04:34:22;;;;;;;8.10;3.00;;;8.60;1.00;;;;;;5074207;28;20177;-84
2024/01/05 04:36:48;;;;;;;9.00;2.53;;;8.60;1.00;;;;;;5076093;28;20643;-84
2024/01/05 04:39:13;;;;;;;16.13;2.73;;;8.50;1.00;;;;;;5079083;28;20180;-85
2024/01/05 04:41:39;;;;;;;10.33;2.97;;;8.60;1.00;;;;;;5068538;28;20208;-85
2024/01/05 04:44:04;;;;;;;3.10;1.57;;;8.50;1.00;;;;;;5075277;28;20182;-85
2024/01/05 04:46:30;;;;;;;12.13;2.80;;;8.60;1.00;;;;;;5073808;28;20741;-84
2024/01/05 04:48:56;;;;;;;42.97;14.50;;;8.60;1.00;;;;;;5081306;28;20189;-85
2024/01/05 04:51:21;;;;;;;11.97;3.13;;;8.60;1.00;;;;;;5083567;28;20282;-85
2024/01/05 04:53:49;;;;;;;9.37;3.97;;;8.70;1.00;;;;;;5078944;28;20173;-85
2024/01/05 04:56:14;;;;;;;25.00;11.27;;;8.70;1.00;;;;;;5081157;28;20444;-86
2024/01/05 04:58:40;;;;;;;11.43;6.80;;;8.70;1.00;;;;;;5058357;28;20523;-85
2024/01/05 05:01:06;;;;;;;10.50;2.60;;;8.70;1.00;;;;;;5093364;22;21020;-83
2024/01/05 05:03:31;;;;;;;4.13;1.60;;;8.60;1.00;;;;;;5052825;28;20202;-83
2024/01/05 05:05:57;;;;;;;4.17;2.00;;;8.60;1.00;;;;;;5048693;28;20973;-83
2024/01/05 05:08:22;;;;;;;6.10;2.07;;;8.60;1.00;;;;;;5053772;28;20687;-82
2024/01/05 05:10:48;;;;;;;5.23;1.70;;;8.60;1.00;;;;;;5050269;28;20220;-82
2024/01/05 05:13:14;;;;;;;4.87;1.47;;;8.50;1.00;;;;;;5035848;28;20175;-82
2024/01/05 05:15:39;;;;;;;3.33;1.53;;;8.50;1.00;;;;;;5031913;28;20187;-81
2024/01/05 05:18:05;;;;;;;9.80;3.53;;;8.50;1.00;;;;;;5031640;28;20195;-81
2024/01/05 05:20:30;;;;;;;6.17;2.30;;;8.50;1.00;;;;;;5036902;28;20660;-80
2024/01/05 05:22:56;;;;;;;4.23;1.70;;;8.50;1.00;;;;;;5043745;28;20190;-81
2024/01/05 05:25:23;;;;;;;9.30;1.60;;;8.50;1.00;;;;;;5039558;28;20184;-81
2024/01/05 05:27:49;;;;;;;2.77;1.20;;;8.50;1.00;;;;;;5029478;28;20538;-80
2024/01/05 05:30:14;;;;;;;4.57;1.50;;;8.50;1.00;;;;;;5033075;28;20465;-83
2024/01/05 05:32:40;;;;;;;2.40;1.33;;;8.50;99.90;;;;;;5029129;28;20174;-83
2024/01/05 05:35:06;;;;;;;6.33;1.80;;;8.40;99.90;;;;;;5027545;28;20198;-82
2024/01/05 05:37:31;;;;;;;4.77;1.30;;;8.50;99.90;;;;;;5013247;28;20256;-81
2024/01/05 05:39:56;;;;;;;4.23;1.53;;;8.50;99.90;;;;;;5032468;28;21005;-81
2024/01/05 05:42:22;;;;;;;3.73;1.13;;;8.50;99.90;;;;;;5032639;28;20209;-82
2024/01/05 05:44:47;;;;;;;5.13;1.53;;;8.50;99.90;;;;;;5033877;28;20647;-81
2024/01/05 05:47:13;;;;;;;4.33;1.40;;;8.50;99.90;;;;;;5038706;28;20683;-82
2024/01/05 05:49:38;;;;;;;6.87;2.10;;;8.50;62.00;;;;;;5030125;28;20195;-82
2024/01/05 05:52:05;;;;;;;2.57;1.37;;;8.60;98.70;;;;;;5026836;28;20226;-81
2024/01/05 05:54:31;;;;;;;4.50;1.17;;;8.50;63.10;;;;;;5033974;28;20209;-81
2024/01/05 05:56:56;;;;;;;4.23;2.07;;;8.50;1.00;;;;;;5032513;28;20429;-81
2024/01/05 05:59:22;;;;;;;2.97;1.80;;;8.50;1.00;;;;;;5044528;28;20421;-82
2024/01/05 06:01:48;;;;;;;2.00;1.10;;;8.50;1.00;;;;;;5030872;28;20633;-82
2024/01/05 06:04:14;;;;;;;5.73;1.23;;;8.50;1.00;;;;;;5018873;28;20487;-83
2024/01/05 06:06:39;;;;;;;6.17;1.93;;;8.40;1.00;;;;;;5033749;28;20654;-82
2024/01/05 06:09:05;;;;;;;3.83;1.50;;;8.40;1.00;;;;;;5031533;28;20197;-83
2024/01/05 06:11:31;;;;;;;3.20;2.70;;;8.40;1.00;;;;;;5020953;28;20214;-83
2024/01/05 06:13:57;;;;;;;7.40;1.17;;;8.40;1.00;;;;;;5037474;28;20531;-81
2024/01/05 06:16:23;;;;;;;4.83;1.23;;;8.40;1.00;;;;;;5035916;28;20286;-83
2024/01/05 06:18:49;;;;;;;2.93;1.17;;;8.40;1.00;;;;;;5036297;28;20179;-82
2024/01/05 06:21:14;;;;;;;2.20;1.30;;;8.40;1.00;;;;;;5033311;28;20487;-81
2024/01/05 06:23:40;;;;;;;3.10;1.27;;;8.50;1.00;;;;;;5039427;28;20217;-82
2024/01/05 06:26:05;;;;;;;5.03;1.37;;;8.60;1.00;;;;;;5031379;28;20282;-81
2024/01/05 06:28:31;;;;;;;4.63;0.90;;;8.60;1.00;;;;;;5016605;28;20248;-82
2024/01/05 06:30:57;;;;;;;3.40;0.90;;;8.70;1.00;;;;;;5038136;28;20946;-80
2024/01/05 06:33:22;;;;;;;4.17;1.10;;;8.70;1.00;;;;;;5048200;28;20195;-83
2024/01/05 06:35:48;;;;;;;3.10;1.00;;;8.70;1.00;;;;;;5032506;28;20724;-83
2024/01/05 06:38:14;;;;;;;2.70;0.87;;;8.70;1.00;;;;;;5039086;28;20262;-83
2024/01/05 06:40:40;;;;;;;1.77;0.83;;;8.80;99.90;;;;;;5014361;28;20206;-81
2024/01/05 06:43:05;;;;;;;3.93;1.10;;;8.80;1.00;;;;;;5030354;28;20865;-81
2024/01/05 06:45:31;;;;;;;3.80;1.37;;;8.80;1.00;;;;;;5031908;28;20262;-81
2024/01/05 06:47:56;;;;;;;4.20;1.00;;;8.80;3.30;;;;;;5040440;28;20189;-83
2024/01/05 06:50:24;;;;;;;3.53;1.20;;;8.90;1.00;;;;;;5031824;28;20265;-82
2024/01/05 06:52:50;;;;;;;2.53;1.00;;;8.90;99.90;;;;;;5016590;28;20182;-80
2024/01/05 06:55:15;;;;;;;8.47;1.73;;;8.80;99.90;;;;;;5029355;28;20429;-81
2024/01/05 06:57:41;;;;;;;4.03;1.13;;;8.80;99.90;;;;;;5029710;28;20421;-82
2024/01/05 07:00:11;;;;;;;3.80;1.30;;;8.80;1.00;;;;;;5034370;28;20604;-82
2024/01/05 07:02:37;;;;;;;4.70;1.00;;;8.70;1.00;;;;;;5023150;28;20445;-82
2024/01/05 07:05:03;;;;;;;3.63;1.00;;;8.70;99.90;;;;;;5012749;28;20437;-82
2024/01/05 07:07:30;;;;;;;4.10;0.97;;;8.70;99.90;;;;;;5014174;28;21118;-81
2024/01/05 07:09:56;;;;;;;4.67;1.10;;;8.70;99.90;;;;;;5029370;28;20429;-81
2024/01/05 07:12:22;;;;;;;4.50;1.20;;;8.70;99.90;;;;;;5035707;28;20449;-82
2024/01/05 07:14:47;;;;;;;2.40;0.70;;;8.70;99.90;;;;;;5036482;28;20431;-82
2024/01/05 07:17:13;;;;;;;2.77;1.13;;;8.70;99.90;;;;;;5028076;28;20227;-82
2024/01/05 07:19:39;;;;;;;1.60;0.97;;;8.70;1.00;;;;;;5032594;28;20641;-82
2024/01/05 07:22:04;;;;;;;1.33;0.90;;;8.60;1.00;;;;;;5028890;28;20219;-81
2024/01/05 07:24:30;;;;;;;3.33;0.87;;;8.60;99.90;;;;;;5041126;28;20497;-80
2024/01/05 07:26:55;;;;;;;1.70;0.80;;;8.60;99.90;;;;;;5027422;28;20186;-82
2024/01/05 07:29:21;;;;;;;1.60;0.70;;;8.60;1.00;;;;;;5020067;28;20183;-83
2024/01/05 07:31:47;;;;;;;3.00;0.93;;;8.60;99.90;;;;;;5039495;28;20230;-82
2024/01/05 07:34:12;;;;;;;4.03;0.80;;;8.70;99.90;;;;;;5036384;28;20607;-82
2024/01/05 07:36:44;;;;;;;1.00;0.77;;;8.80;1.00;;;;;;5047585;28;20208;-82
2024/01/05 07:39:11;;;;;;;2.77;1.07;;;8.90;99.90;;;;;;5042423;28;20182;-82
2024/01/05 07:41:37;;;;;;;2.03;0.90;;;9.00;1.00;;;;;;5041449;28;20452;-82
2024/01/05 07:44:02;;;;;;;2.47;1.20;;;9.00;99.90;;;;;;5041263;28;20444;-81
2024/01/05 07:46:28;;;;;;;2.10;0.80;;;9.10;1.00;;;;;;5040733;28;20468;-81
2024/01/05 07:48:54;;;;;;;2.50;0.70;;;9.10;1.00;;;;;;5048345;28;20197;-82
2024/01/05 07:51:20;;;;;;;2.50;1.00;;;9.20;99.90;;;;;;5034437;28;20213;-81
2024/01/05 07:53:45;;;;;;;3.87;0.80;;;9.20;99.90;;;;;;5043025;28;20433;-83
2024/01/05 07:56:11;;;;;;;1.70;0.87;;;9.20;67.00;;;;;;5019413;28;20274;-80
2024/01/05 07:58:39;;;;;;;2.20;0.80;;;9.20;1.00;;;;;;5041985;28;20233;-82
2024/01/05 08:01:04;;;;;;;1.47;0.80;;;9.30;1.00;;;;;;5034305;28;20496;-82
2024/01/05 08:03:30;;;;;;;1.17;0.70;;;9.30;1.00;;;;;;5034142;28;20441;-82
2024/01/05 08:05:55;;;;;;;2.70;1.00;;;9.30;1.00;;;;;;5043368;28;20191;-81
2024/01/05 08:08:21;;;;;;;3.10;0.90;;;9.30;1.00;;;;;;5036905;28;20646;-82
2024/01/05 08:10:46;;;;;;;1.10;0.63;;;9.30;1.00;;;;;;5043501;28;20240;-82
2024/01/05 08:13:12;;;;;;;1.87;0.73;;;9.30;99.90;;;;;;5042076;28;20189;-82
2024/01/05 08:15:37;;;;;;;1.10;0.70;;;9.40;99.90;;;;;;5036388;28;20675;-82
2024/01/05 08:18:03;;;;;;;1.30;0.70;;;9.40;99.90;;;;;;5019211;28;20187;-81
2024/01/05 08:20:29;;;;;;;4.37;1.07;;;9.40;99.90;;;;;;5036254;28;20209;-81
2024/01/05 08:22:54;;;;;;;2.40;0.60;;;9.40;99.90;;;;;;5042391;28;20463;-81
2024/01/05 08:25:20;;;;;;;1.50;0.60;;;9.40;99.90;;;;;;5017258;28;20278;-81
2024/01/05 08:27:45;;;;;;;3.00;2.30;;;9.40;99.90;;;;;;5035408;28;20180;-82
2024/01/05 08:30:12;;;;;;;1.77;0.70;;;9.30;99.90;;;;;;5039187;28;20221;-82
2024/01/05 08:32:38;;;;;;;1.43;0.77;;;9.30;99.90;;;;;;5025246;28;20269;-80
2024/01/05 08:35:06;;;;;;;1.43;0.60;;;9.30;99.90;;;;;;5033897;28;20505;-82
2024/01/05 08:37:31;;;;;;;0.93;0.50;;;9.20;99.90;;;;;;5036369;28;20465;-81
2024/01/05 08:39:57;;;;;;;1.90;0.90;;;9.20;93.40;;;;;;5038205;28;20460;-81
2024/01/05 08:42:23;;;;;;;0.90;0.50;;;9.30;77.00;;;;;;5032601;28;20449;-81
2024/01/05 08:44:50;;;;;;;1.53;0.83;;;9.30;94.40;;;;;;5042919;28;20210;-82
2024/01/05 08:47:16;;;;;;;1.10;0.67;;;9.30;99.90;;;;;;5033499;28;20238;-80
2024/01/05 08:49:42;;;;;;;1.90;0.60;;;9.40;99.90;;;;;;5038783;28;20441;-81
2024/01/05 08:52:07;;;;;;;1.00;0.60;;;9.40;49.80;;;;;;5038974;28;20846;-83
2024/01/05 08:54:33;;;;;;;1.37;0.43;;;9.60;22.30;;;;;;5032916;28;20246;-82
2024/01/05 08:56:59;;;;;;;7.20;0.80;;;9.70;7.20;;;;;;5038913;28;20679;-81
2024/01/05 08:59:24;;;;;;;0.97;0.53;;;9.80;1.00;;;;;;5040925;28;20463;-82
2024/01/05 09:01:50;;;;;;;1.10;0.70;;;9.80;1.00;;;;;;5041334;28;20267;-83
2024/01/05 09:04:15;;;;;;;1.50;0.63;;;9.90;1.00;;;;;;5034838;28;20259;-82
2024/01/05 09:06:42;;;;;;;1.00;0.63;;;9.90;1.00;;;;;;5042242;28;20236;-82
2024/01/05 09:09:07;;;;;;;3.33;0.80;;;10.00;1.00;;;;;;5052425;28;20273;-81
2024/01/05 09:11:33;;;;;;;4.20;0.70;;;10.00;1.00;;;;;;5044768;28;20560;-83
2024/01/05 09:13:58;;;;;;;2.60;0.80;;;10.00;1.00;;;;;;5023254;28;20186;-83
2024/01/05 09:16:24;;;;;;;1.20;0.83;;;10.00;1.00;;;;;;5030978;28;20619;-83
2024/01/05 09:18:50;;;;;;;1.47;0.97;;;9.90;1.00;;;;;;5014121;28;20172;-82
2024/01/05 09:21:16;;;;;;;1.70;0.77;;;9.90;1.00;;;;;;5035390;28;20495;-82
2024/01/05 09:23:41;;;;;;;1.57;0.60;;;9.90;1.00;;;;;;5037113;28;20217;-82
2024/01/05 09:26:14;;;;;;;1.50;0.87;;;9.90;1.00;;;;;;5036434;28;20190;-81
2024/01/05 09:28:40;;;;;;;1.33;0.73;;;9.80;1.00;;;;;;5033356;28;20178;-81
2024/01/05 09:31:05;;;;;;;2.00;0.77;;;9.80;1.00;;;;;;5037596;28;20499;-82
2024/01/05 09:33:31;;;;;;;10.73;0.77;;;9.70;1.00;;;;;;5033279;28;20178;-82
2024/01/05 09:35:56;;;;;;;6.60;0.90;;;9.70;1.00;;;;;;5029448;28;20205;-82
2024/01/05 09:38:22;;;;;;;1.50;0.77;;;9.90;1.00;;;;;;5016010;28;20221;-82
2024/01/05 09:40:52;;;;;;;1.10;0.67;;;10.00;1.00;;;;;;5023206;28;20255;-84
2024/01/05 09:43:21;;;;;;;1.80;1.00;;;10.40;1.00;;;;;;5045457;28;20196;-84
2024/01/05 09:45:49;;;;;;;1.03;0.80;;;10.70;1.00;;;;;;5016470;28;20515;-82
2024/01/05 09:48:18;;;;;;;3.87;0.83;;;10.90;1.00;;;;;;5031459;28;20460;-82
2024/01/05 09:50:55;;;;;;;2.83;0.80;;;10.80;1.00;;;;;;5028089;28;21106;-82
2024/01/05 09:53:20;;;;;;;2.23;0.67;;;10.80;1.00;;;;;;5029766;28;20438;-82
2024/01/05 09:55:50;;;;;;;2.00;0.80;;;10.80;1.00;;;;;;5028335;28;20808;-82
2024/01/05 09:58:16;;;;;;;1.20;0.60;;;10.70;1.00;;;;;;5031132;28;20233;-84
2024/01/05 10:00:49;;;;;;;1.10;0.70;;;10.90;1.00;;;;;;5031979;28;20536;-84
2024/01/05 10:03:23;;;;;;;1.20;0.63;;;10.80;1.00;;;;;;5029969;28;20437;-81
2024/01/05 10:05:53;;;;;;;1.47;0.80;;;10.60;1.00;;;;;;5008337;28;20433;-82
2024/01/05 10:08:19;;;;;;;1.40;0.80;;;10.40;1.00;;;;;;5014582;28;20433;-83
2024/01/05 10:10:49;;;;;;;1.47;0.60;;;10.30;1.00;;;;;;5032212;28;20518;-83
2024/01/05 10:13:17;;;;;;;2.93;0.73;;;10.10;1.00;;;;;;5030393;28;20441;-82
2024/01/05 10:16:02;;;;;;;1.00;0.60;;;10.00;1.00;;;;;;5026118;28;20424;-83
2024/01/05 10:18:29;;;;;;;3.40;1.07;;;10.00;1.00;;;;;;5008797;28;21002;-82
2024/01/05 10:20:55;;;;;;;4.33;0.80;;;9.90;1.00;;;;;;5008392;28;20987;-82
2024/01/05 10:23:21;;;;;;;4.63;0.93;;;10.00;1.00;;;;;;5035349;28;20448;-80
2024/01/05 10:25:47;;;;;;;3.50;1.03;;;9.90;1.00;;;;;;5021717;28;20445;-82
2024/01/05 10:28:31;;;;;;;2.30;0.87;;;10.00;1.00;;;;;;5018396;28;20657;-81
2024/01/05 10:31:13;;;;;;;3.77;0.83;;;9.90;1.00;;;;;;5023822;28;20211;-81
2024/01/05 10:33:52;;;;;;;1.30;0.70;;;9.90;1.00;;;;;;5024542;28;20979;-78
2024/01/05 10:36:23;;;;;;;2.43;0.70;;;9.80;1.00;;;;;;5031597;28;20445;-81
2024/01/05 10:38:49;;;;;;;2.33;1.00;;;9.90;1.00;;;;;;5039635;28;20497;-81
2024/01/05 10:41:16;;;;;;;1.57;0.90;;;9.90;1.00;;;;;;5041282;28;20831;-82
2024/01/05 10:43:43;;;;;;;3.30;1.07;;;10.00;1.00;;;;;;5021694;28;20450;-81
2024/01/05 10:46:12;;;;;;;4.23;1.00;;;10.10;1.00;;;;;;5017049;28;20467;-81
2024/01/05 10:48:40;;;;;;;6.57;1.37;;;10.10;1.00;;;;;;5029787;28;20495;-82
2024/01/05 10:51:06;;;;;;;1.53;0.73;;;10.10;1.00;;;;;;5017962;28;20480;-81
2024/01/05 10:53:32;;;;;;;1.97;0.80;;;10.10;1.00;;;;;;5034988;28;20472;-82
2024/01/05 10:55:59;;;;;;;2.87;1.43;;;10.10;1.00;;;;;;5028023;28;20533;-81
2024/01/05 10:58:25;;;;;;;2.00;1.10;;;10.10;1.00;;;;;;5041938;28;20445;-82
2024/01/05 11:00:54;;;;;;;2.60;1.00;;;10.30;1.00;;;;;;5038215;28;20464;-81
2024/01/05 11:03:21;;;;;;;1.93;0.70;;;10.50;1.00;;;;;;5041207;28;20186;-81
2024/01/05 11:05:47;;;;;;;2.27;0.70;;;10.80;1.00;;;;;;5041911;28;20463;-82
2024/01/05 11:08:53;;;;;;;3.47;1.00;;;11.20;1.00;;;;;;5023674;28;20437;-83
2024/01/05 11:11:43;;;;;;;1.83;1.00;;;11.50;1.00;;;;;;5035953;28;20477;-82
2024/01/05 11:14:35;;;;;;;1.23;0.80;;;11.60;1.00;;;;;;5040758;28;20436;-81
2024/01/05 11:17:01;;;;;;;2.23;1.27;;;11.50;1.00;;;;;;5045408;28;20433;-82
2024/01/05 11:19:50;;;;;;;2.50;0.90;;;11.20;1.00;;;;;;5031925;28;21069;-81
2024/01/05 11:22:21;;;;;;;3.30;0.80;;;11.20;1.00;;;;;;5035962;28;20202;-81
2024/01/05 11:24:49;;;;;;;2.83;1.27;;;11.20;1.00;;;;;;5039133;28;20448;-81
2024/01/05 11:27:29;;;;;;;3.37;1.17;;;11.00;1.00;;;;;;5043141;28;20433;-83
2024/01/05 11:29:56;;;;;;;1.10;0.60;;;10.90;1.00;;;;;;5040025;28;20782;-82
2024/01/05 11:32:46;;;;;;;1.10;0.70;;;10.80;1.00;;;;;;5046845;28;20476;-81
2024/01/05 11:35:19;;;;;;;3.73;0.80;;;10.70;1.00;;;;;;5039550;28;20501;-80
2024/01/05 11:37:48;;;;;;;5.30;1.10;;;10.70;1.00;;;;;;5040339;28;20433;-81
2024/01/05 11:40:26;;;;;;;2.30;1.00;;;10.50;1.00;;;;;;5035638;28;20943;-80
2024/01/05 11:42:58;;;;;;;5.63;1.37;;;10.30;1.00;;;;;;5039247;28;21085;-82
2024/01/05 11:45:47;;;;;;;7.43;1.10;;;10.20;1.00;;;;;;5041813;28;20435;-83
2024/01/05 11:48:35;;;;;;;2.07;1.00;;;10.30;1.00;;;;;;5029159;28;20815;-82
2024/01/05 11:51:10;;;;;;;4.70;1.03;;;10.40;1.00;;;;;;5042026;28;20498;-81
2024/01/05 11:53:36;;;;;;;3.63;1.10;;;10.40;1.00;;;;;;5033534;28;20432;-80
2024/01/05 11:56:17;;;;;;;2.40;1.10;;;10.40;1.00;;;;;;5030143;28;20439;-81
2024/01/05 11:58:43;;;;;;;8.30;1.10;;;10.50;1.00;;;;;;5031300;28;20799;-80
2024/01/05 12:01:10;;;;;;;2.53;0.97;;;10.50;1.00;;;;;;5021499;28;20473;-81
2024/01/05 12:03:38;;;;;;;4.93;1.10;;;10.70;1.00;;;;;;5022856;28;20436;-83
2024/01/05 12:06:05;;;;;;;2.93;0.90;;;10.80;1.00;;;;;;5025290;28;20437;-82
2024/01/05 12:08:30;;;;;;;2.20;0.90;;;11.00;1.00;;;;;;5027544;28;20481;-83
2024/01/05 12:10:57;;;;;;;3.13;1.07;;;11.10;1.00;;;;;;5025699;28;20504;-83
2024/01/05 12:13:27;;;;;;;5.97;1.10;;;11.10;1.00;;;;;;5026439;28;20187;-83
2024/01/05 12:15:57;;;;;;;3.10;0.90;;;11.00;1.00;;;;;;5027384;28;20445;-82
2024/01/05 12:18:26;;;;;;;2.50;1.10;;;11.00;1.00;;;;;;5025891;28;21003;-83
2024/01/05 12:20:55;;;;;;;1.67;0.87;;;10.90;1.00;;;;;;5021299;28;20873;-84
2024/01/05 12:23:21;;;;;;;2.07;1.20;;;10.70;1.00;;;;;;5025589;28;20524;-82
2024/01/05 12:25:58;;;;;;;1.87;1.10;;;10.60;1.00;;;;;;5023418;28;20888;-82
2024/01/05 12:28:24;;;;;;;3.90;1.03;;;10.40;1.00;;;;;;5023096;28;20282;-82
2024/01/05 12:30:50;;;;;;;2.70;0.97;;;10.20;1.00;;;;;;5022069;28;20908;-82
2024/01/05 12:33:17;;;;;;;4.17;1.33;;;10.10;1.00;;;;;;5029192;28;20244;-81
2024/01/05 12:35:43;;;;;;;9.07;1.23;;;9.90;1.00;;;;;;5025589;28;20858;-81
2024/01/05 12:38:08;;;;;;;3.63;1.07;;;9.80;99.00;;;;;;5030110;28;20515;-83
2024/01/05 12:40:34;;;;;;;7.03;2.40;;;9.70;99.90;;;;;;5026628;28;20473;-81
2024/01/05 12:42:59;;;;;;;3.70;1.10;;;9.60;99.90;;;;;;5031979;28;20672;-81
2024/01/05 12:45:26;;;;;;;4.20;1.00;;;9.50;1.00;;;;;;5029044;28;20195;-82
2024/01/05 12:47:52;;;;;;;5.17;1.03;;;9.40;1.00;;;;;;5023992;28;20677;-81
2024/01/05 12:50:28;;;;;;;5.80;1.07;;;9.40;1.00;;;;;;5026434;28;20505;-81
2024/01/05 12:52:55;;;;;;;6.57;1.40;;;9.30;25.80;;;;;;5029379;28;20439;-82
2024/01/05 12:55:31;;;;;;;5.13;1.17;;;9.30;99.90;;;;;;5030484;28;20445;-82
2024/01/05 12:58:03;;;;;;;4.10;1.40;;;9.30;99.90;;;;;;5032663;28;20439;-83